sensor_id;sensor_type;location;lat;lon;timestamp;pressure;altitude;pressure_sealevel;temperature;humidity
9187;BME280;7273;48.902;9.410;2024-03-17T00:01:03;98755.91;;;8.10;79.55
9187;BME280;7273;48.902;9.410;2024-03-17T00:03:30;98752.88;;;8.07;79.43
9187;BME280;7273;48.902;9.410;2024-03-17T00:05:57;98755.03;;;8.05;79.78
9187;BME280;7273;48.902;9.410;2024-03-17T00:08:23;98750.19;;;8.07;79.83
9187;BME280;7273;48.902;9.410;2024-03-17T00:10:52;98747.91;;;7.99;79.79
9187;BME280;7273;48.902;9.410;2024-03-17T00:13:18;98745.94;;;7.94;79.71
9187;BME280;7273;48.902;9.410;2024-03-17T00:15:44;98758.50;;;7.89;79.83
9187;BME280;7273;48.902;9.410;2024-03-17T00:18:10;98758.97;;;7.86;80.10
9187;BME280;7273;48.902;9.410;2024-03-17T00:20:36;98755.41;;;7.80;79.77
9187;BME280;7273;48.902;9.410;2024-03-17T00:23:03;98751.38;;;7.83;79.89
9187;BME280;7273;48.902;9.410;2024-03-17T00:25:32;98758.78;;;7.76;79.82
9187;BME280;7273;48.902;9.410;2024-03-17T00:28:02;98763.28;;;7.70;79.47
9187;BME280;7273;48.902;9.410;2024-03-17T00:30:28;98769.50;;;7.71;79.20
9187;BME280;7273;48.902;9.410;2024-03-17T00:32:53;98760.59;;;7.70;79.53
9187;BME280;7273;48.902;9.410;2024-03-17T00:35:19;98752.75;;;7.69;79.91
9187;BME280;7273;48.902;9.410;2024-03-17T00:37:48;98742.00;;;7.69;80.69
9187;BME280;7273;48.902;9.410;2024-03-17T00:40:14;98752.75;;;7.69;80.04
9187;BME280;7273;48.902;9.410;2024-03-17T00:42:42;98748.00;;;7.59;79.78
9187;BME280;7273;48.902;9.410;2024-03-17T00:45:08;98742.84;;;7.58;79.59
9187;BME280;7273;48.902;9.410;2024-03-17T00:47:36;98744.16;;;7.55;79.72
9187;BME280;7273;48.902;9.410;2024-03-17T00:50:02;98737.84;;;7.50;79.30
9187;BME280;7273;48.902;9.410;2024-03-17T00:52:30;98740.53;;;7.50;79.85
9187;BME280;7273;48.902;9.410;2024-03-17T00:54:55;98734.84;;;7.46;79.60
9187;BME280;7273;48.902;9.410;2024-03-17T00:57:21;98734.50;;;7.43;79.41
9187;BME280;7273;48.902;9.410;2024-03-17T00:59:47;98731.81;;;7.43;79.80
9187;BME280;7273;48.902;9.410;2024-03-17T01:02:14;98727.69;;;7.40;79.91
9187;BME280;7273;48.902;9.410;2024-03-17T01:04:41;98723.63;;;7.38;80.52
9187;BME280;7273;48.902;9.410;2024-03-17T01:07:07;98734.88;;;7.35;80.42
9187;BME280;7273;48.902;9.410;2024-03-17T01:09:32;98730.44;;;7.29;80.45
9187;BME280;7273;48.902;9.410;2024-03-17T01:11:58;98738.50;;;7.29;80.14
9187;BME280;7273;48.902;9.410;2024-03-17T01:14:24;98738.16;;;7.25;80.12
9187;BME280;7273;48.902;9.410;2024-03-17T01:16:52;98740.41;;;7.28;80.10
9187;BME280;7273;48.902;9.410;2024-03-17T01:19:18;98736.19;;;7.21;79.69
9187;BME280;7273;48.902;9.410;2024-03-17T01:21:44;98730.22;;;7.19;79.83
9187;BME280;7273;48.902;9.410;2024-03-17T01:24:09;98735.28;;;7.15;80.29
9187;BME280;7273;48.902;9.410;2024-03-17T01:26:35;98733.28;;;7.11;79.84
9187;BME280;7273;48.902;9.410;2024-03-17T01:29:00;98720.91;;;7.10;80.62
9187;BME280;7273;48.902;9.410;2024-03-17T01:31:27;98725.47;;;7.09;80.38
9187;BME280;7273;48.902;9.410;2024-03-17T01:33:53;98719.50;;;7.07;80.23
9187;BME280;7273;48.902;9.410;2024-03-17T01:36:18;98716.81;;;7.07;80.13
9187;BME280;7273;48.902;9.410;2024-03-17T01:38:44;98712.25;;;7.08;80.14
9187;BME280;7273;48.902;9.410;2024-03-17T01:41:10;98711.66;;;7.06;79.96
9187;BME280;7273;48.902;9.410;2024-03-17T01:43:35;98704.22;;;6.96;80.58
9187;BME280;7273;48.902;9.410;2024-03-17T01:46:02;98707.63;;;6.92;80.54
9187;BME280;7273;48.902;9.410;2024-03-17T01:48:28;98706.13;;;6.84;80.26
9187;BME280;7273;48.902;9.410;2024-03-17T01:50:55;98700.16;;;6.82;80.73
9187;BME280;7273;48.902;9.410;2024-03-17T01:53:22;98699.94;;;6.83;80.68
9187;BME280;7273;48.902;9.410;2024-03-17T01:55:54;98699.69;;;6.85;80.63
9187;BME280;7273;48.902;9.410;2024-03-17T01:58:25;98700.16;;;6.82;80.57
9187;BME280;7273;48.902;9.410;2024-03-17T02:00:51;98697.47;;;6.82;80.35
9187;BME280;7273;48.902;9.410;2024-03-17T02:03:18;98694.69;;;6.77;80.39
9187;BME280;7273;48.902;9.410;2024-03-17T02:05:44;98686.72;;;6.82;80.46
9187;BME280;7273;48.902;9.410;2024-03-17T02:08:10;98686.03;;;6.75;80.15
9187;BME280;7273;48.902;9.410;2024-03-17T02:10:39;98682.50;;;6.74;80.27
9187;BME280;7273;48.902;9.410;2024-03-17T02:13:05;98679.28;;;6.72;80.90
9187;BME280;7273;48.902;9.410;2024-03-17T02:15:31;98681.59;;;6.69;80.49
9187;BME280;7273;48.902;9.410;2024-03-17T02:17:58;98686.16;;;6.68;80.45
9187;BME280;7273;48.902;9.410;2024-03-17T02:20:24;98673.19;;;6.65;80.63
9187;BME280;7273;48.902;9.410;2024-03-17T02:23:16;98670.50;;;6.65;80.44
9187;BME280;7273;48.902;9.410;2024-03-17T02:25:41;98663.03;;;6.67;80.56
9187;BME280;7273;48.902;9.410;2024-03-17T02:28:08;98665.13;;;6.65;80.51
9187;BME280;7273;48.902;9.410;2024-03-17T02:30:34;98662.22;;;6.67;80.59
9187;BME280;7273;48.902;9.410;2024-03-17T02:33:00;98664.91;;;6.67;80.08
9187;BME280;7273;48.902;9.410;2024-03-17T02:35:25;98665.13;;;6.65;80.42
9187;BME280;7273;48.902;9.410;2024-03-17T02:37:51;98669.09;;;6.63;80.28
9187;BME280;7273;48.902;9.410;2024-03-17T02:40:17;98669.22;;;6.56;80.60
9187;BME280;7273;48.902;9.410;2024-03-17T02:42:43;98670.63;;;6.59;80.44
9187;BME280;7273;48.902;9.410;2024-03-17T02:45:10;98669.22;;;6.56;79.84
9187;BME280;7273;48.902;9.410;2024-03-17T02:47:37;98667.13;;;6.58;80.09
9187;BME280;7273;48.902;9.410;2024-03-17T02:50:02;98670.28;;;6.55;80.49
9187;BME280;7273;48.902;9.410;2024-03-17T02:52:29;98657.69;;;6.56;80.40
9187;BME280;7273;48.902;9.410;2024-03-17T02:54:55;98661.50;;;6.60;80.13
9187;BME280;7273;48.902;9.410;2024-03-17T02:57:20;98661.41;;;6.55;79.81
9187;BME280;7273;48.902;9.410;2024-03-17T02:59:48;98654.75;;;6.57;80.26
9187;BME280;7273;48.902;9.410;2024-03-17T03:02:14;98657.91;;;6.54;80.20
9187;BME280;7273;48.902;9.410;2024-03-17T03:04:39;98655.22;;;6.54;80.12
9187;BME280;7273;48.902;9.410;2024-03-17T03:07:04;98653.81;;;6.52;80.24
9187;BME280;7273;48.902;9.410;2024-03-17T03:09:30;98650.88;;;6.53;79.94
9187;BME280;7273;48.902;9.410;2024-03-17T03:11:58;98649.63;;;6.56;80.23
9187;BME280;7273;48.902;9.410;2024-03-17T03:14:30;98651.94;;;6.52;80.28
9187;BME280;7273;48.902;9.410;2024-03-17T03:16:56;98655.91;;;6.50;80.77
9187;BME280;7273;48.902;9.410;2024-03-17T03:19:21;98651.13;;;6.40;80.23
9187;BME280;7273;48.902;9.410;2024-03-17T03:21:46;98654.53;;;6.36;80.27
9187;BME280;7273;48.902;9.410;2024-03-17T03:24:14;98653.25;;;6.38;80.86
9187;BME280;7273;48.902;9.410;2024-03-17T03:26:39;98652.69;;;6.36;80.41
9187;BME280;7273;48.902;9.410;2024-03-17T03:29:05;98649.16;;;6.36;80.46
9187;BME280;7273;48.902;9.410;2024-03-17T03:31:32;98645.78;;;6.40;80.21
9187;BME280;7273;48.902;9.410;2024-03-17T03:33:57;98643.66;;;6.42;80.70
9187;BME280;7273;48.902;9.410;2024-03-17T03:36:26;98648.31;;;6.47;80.44
9187;BME280;7273;48.902;9.410;2024-03-17T03:38:52;98646.34;;;6.42;80.31
9187;BME280;7273;48.902;9.410;2024-03-17T03:41:18;98644.03;;;6.46;80.02
9187;BME280;7273;48.902;9.410;2024-03-17T03:43:43;98646.59;;;6.41;80.27
9187;BME280;7273;48.902;9.410;2024-03-17T03:46:11;98642.16;;;6.35;80.49
9187;BME280;7273;48.902;9.410;2024-03-17T03:48:36;98650.00;;;6.36;80.62
9187;BME280;7273;48.902;9.410;2024-03-17T03:51:06;98643.19;;;6.34;80.17
9187;BME280;7273;48.902;9.410;2024-03-17T03:53:32;98651.25;;;6.34;80.65
9187;BME280;7273;48.902;9.410;2024-03-17T03:55:58;98640.16;;;6.30;80.33
9187;BME280;7273;48.902;9.410;2024-03-17T03:58:27;98638.41;;;6.36;81.40
9187;BME280;7273;48.902;9.410;2024-03-17T04:00:54;98639.72;;;6.33;80.85
9187;BME280;7273;48.902;9.410;2024-03-17T04:03:20;98633.28;;;6.34;80.62
9187;BME280;7273;48.902;9.410;2024-03-17T04:05:46;98643.31;;;6.27;80.59
9187;BME280;7273;48.902;9.410;2024-03-17T04:08:11;98641.81;;;6.31;80.37
9187;BME280;7273;48.902;9.410;2024-03-17T04:10:36;98644.03;;;6.34;80.33
9187;BME280;7273;48.902;9.410;2024-03-17T04:13:02;98643.69;;;6.31;80.33
9187;BME280;7273;48.902;9.410;2024-03-17T04:15:28;98644.50;;;6.31;80.63
9187;BME280;7273;48.902;9.410;2024-03-17T04:17:53;98638.66;;;6.34;80.51
9187;BME280;7273;48.902;9.410;2024-03-17T04:20:19;98643.44;;;6.32;79.95
9187;BME280;7273;48.902;9.410;2024-03-17T04:22:44;98642.84;;;6.30;80.42
9187;BME280;7273;48.902;9.410;2024-03-17T04:25:12;98640.63;;;6.27;80.29
9187;BME280;7273;48.902;9.410;2024-03-17T04:27:38;98638.44;;;6.24;80.24
9187;BME280;7273;48.902;9.410;2024-03-17T04:30:04;98642.28;;;6.28;80.35
9187;BME280;7273;48.902;9.410;2024-03-17T04:32:31;98640.63;;;6.27;80.70
9187;BME280;7273;48.902;9.410;2024-03-17T04:34:56;98643.09;;;6.29;80.15
9187;BME280;7273;48.902;9.410;2024-03-17T04:37:22;98642.72;;;6.25;80.13
9187;BME280;7273;48.902;9.410;2024-03-17T04:39:48;98645.22;;;6.27;80.02
9187;BME280;7273;48.902;9.410;2024-03-17T04:42:15;98652.44;;;6.26;80.63
9187;BME280;7273;48.902;9.410;2024-03-17T04:44:41;98649.66;;;6.21;80.62
9187;BME280;7273;48.902;9.410;2024-03-17T04:47:07;98657.81;;;6.26;79.84
9187;BME280;7273;48.902;9.410;2024-03-17T04:49:37;98658.53;;;6.22;79.89
9187;BME280;7273;48.902;9.410;2024-03-17T04:52:03;98652.69;;;6.25;80.35
9187;BME280;7273;48.902;9.410;2024-03-17T04:54:31;98650.22;;;6.23;80.41
9187;BME280;7273;48.902;9.410;2024-03-17T04:56:56;98649.88;;;6.20;80.26
9187;BME280;7273;48.902;9.410;2024-03-17T04:59:22;98652.44;;;6.15;80.54
9187;BME280;7273;48.902;9.410;2024-03-17T05:01:47;98660.97;;;6.23;80.22
9187;BME280;7273;48.902;9.410;2024-03-17T05:04:14;98654.78;;;6.23;80.64
9187;BME280;7273;48.902;9.410;2024-03-17T05:06:39;98658.16;;;6.18;80.47
9187;BME280;7273;48.902;9.410;2024-03-17T05:09:07;98652.22;;;6.16;80.63
9187;BME280;7273;48.902;9.410;2024-03-17T05:11:32;98650.34;;;6.17;80.19
9187;BME280;7273;48.902;9.410;2024-03-17T05:13:59;98649.75;;;6.15;80.51
9187;BME280;7273;48.902;9.410;2024-03-17T05:16:24;98641.72;;;6.15;79.98
9187;BME280;7273;48.902;9.410;2024-03-17T05:18:50;98648.81;;;6.09;79.82
9187;BME280;7273;48.902;9.410;2024-03-17T05:21:15;98645.44;;;6.14;80.28
9187;BME280;7273;48.902;9.410;2024-03-17T05:23:40;98644.28;;;6.10;80.19
9187;BME280;7273;48.902;9.410;2024-03-17T05:26:06;98642.66;;;6.09;80.26
9187;BME280;7273;48.902;9.410;2024-03-17T05:28:32;98652.44;;;6.03;80.31
9187;BME280;7273;48.902;9.410;2024-03-17T05:30:58;98645.34;;;5.97;80.10
9187;BME280;7273;48.902;9.410;2024-03-17T05:33:25;98647.66;;;6.05;80.03
9187;BME280;7273;48.902;9.410;2024-03-17T05:35:55;98649.41;;;6.00;79.77
9187;BME280;7273;48.902;9.410;2024-03-17T05:38:25;98649.88;;;5.97;79.86
9187;BME280;7273;48.902;9.410;2024-03-17T05:43:25;98649.63;;;5.98;79.67
9187;BME280;7273;48.902;9.410;2024-03-17T05:45:56;98643.56;;;5.91;80.09
9187;BME280;7273;48.902;9.410;2024-03-17T05:48:22;98649.63;;;5.87;79.88
9187;BME280;7273;48.902;9.410;2024-03-17T05:50:49;98649.63;;;5.87;80.16
9187;BME280;7273;48.902;9.410;2024-03-17T05:53:17;98660.59;;;5.85;80.53
9187;BME280;7273;48.902;9.410;2024-03-17T05:55:43;98656.97;;;5.91;80.10
9187;BME280;7273;48.902;9.410;2024-03-17T05:58:10;98653.38;;;5.86;80.22
9187;BME280;7273;48.902;9.410;2024-03-17T06:00:36;98657.91;;;5.85;80.30
9187;BME280;7273;48.902;9.410;2024-03-17T06:03:02;98651.94;;;5.83;80.17
9187;BME280;7273;48.902;9.410;2024-03-17T06:05:31;98650.94;;;5.84;80.15
9187;BME280;7273;48.902;9.410;2024-03-17T06:07:57;98652.06;;;5.88;80.27
9187;BME280;7273;48.902;9.410;2024-03-17T06:10:22;98651.59;;;5.91;80.28
9187;BME280;7273;48.902;9.410;2024-03-17T06:12:50;98652.44;;;5.92;80.31
9187;BME280;7273;48.902;9.410;2024-03-17T06:15:16;98649.03;;;5.96;80.40
9187;BME280;7273;48.902;9.410;2024-03-17T06:17:41;98653.03;;;5.94;80.40
9187;BME280;7273;48.902;9.410;2024-03-17T06:20:07;98651.72;;;5.96;80.43
9187;BME280;7273;48.902;9.410;2024-03-17T06:22:36;98650.69;;;5.97;80.38
9187;BME280;7273;48.902;9.410;2024-03-17T06:25:01;98649.06;;;6.08;80.83
9187;BME280;7273;48.902;9.410;2024-03-17T06:27:27;98644.28;;;6.21;80.64
9187;BME280;7273;48.902;9.410;2024-03-17T06:29:53;98637.25;;;6.20;80.88
9187;BME280;7273;48.902;9.410;2024-03-17T06:32:20;98635.16;;;6.34;80.82
9187;BME280;7273;48.902;9.410;2024-03-17T06:34:45;98634.78;;;6.42;80.83
9187;BME280;7273;48.902;9.410;2024-03-17T06:37:11;98634.53;;;6.43;81.08
9187;BME280;7273;48.902;9.410;2024-03-17T06:39:37;98625.69;;;6.54;80.39
9187;BME280;7273;48.902;9.410;2024-03-17T06:42:02;98624.72;;;6.60;80.47
9187;BME280;7273;48.902;9.410;2024-03-17T06:44:28;98614.06;;;6.65;80.96
9187;BME280;7273;48.902;9.410;2024-03-17T06:46:55;98618.72;;;6.70;80.48
9187;BME280;7273;48.902;9.410;2024-03-17T06:49:21;98621.75;;;6.73;80.70
9187;BME280;7273;48.902;9.410;2024-03-17T06:51:46;98620.38;;;6.71;80.94
9187;BME280;7273;48.902;9.410;2024-03-17T06:54:13;98631.13;;;6.71;80.96
9187;BME280;7273;48.902;9.410;2024-03-17T06:56:38;98633.00;;;6.70;81.16
9187;BME280;7273;48.902;9.410;2024-03-17T06:59:05;98640.00;;;6.71;81.52
9187;BME280;7273;48.902;9.410;2024-03-17T07:01:30;98625.03;;;6.75;81.17
9187;BME280;7273;48.902;9.410;2024-03-17T07:03:55;98636.09;;;6.91;81.58
9187;BME280;7273;48.902;9.410;2024-03-17T07:06:21;98627.16;;;7.02;81.73
9187;BME280;7273;48.902;9.410;2024-03-17T07:08:46;98630.69;;;7.19;81.99
9187;BME280;7273;48.902;9.410;2024-03-17T07:11:12;98624.09;;;7.38;82.71
9187;BME280;7273;48.902;9.410;2024-03-17T07:13:37;98624.09;;;7.54;82.95
9187;BME280;7273;48.902;9.410;2024-03-17T07:16:07;98625.91;;;7.65;82.91
9187;BME280;7273;48.902;9.410;2024-03-17T07:18:34;98624.13;;;7.71;81.87
9187;BME280;7273;48.902;9.410;2024-03-17T07:21:00;98622.31;;;7.76;81.46
9187;BME280;7273;48.902;9.410;2024-03-17T07:23:27;98619.94;;;7.80;81.70
9187;BME280;7273;48.902;9.410;2024-03-17T07:25:55;98631.06;;;7.83;81.19
9187;BME280;7273;48.902;9.410;2024-03-17T07:28:21;98624.19;;;7.92;81.09
9187;BME280;7273;48.902;9.410;2024-03-17T07:31:00;98635.94;;;8.03;81.35
9187;BME280;7273;48.902;9.410;2024-03-17T07:33:26;98624.16;;;8.09;81.60
9187;BME280;7273;48.902;9.410;2024-03-17T07:38:17;98626.31;;;8.24;81.56
9187;BME280;7273;48.902;9.410;2024-03-17T07:40:44;98629.91;;;8.29;81.33
9187;BME280;7273;48.902;9.410;2024-03-17T07:43:10;98623.84;;;8.39;81.32
9187;BME280;7273;48.902;9.410;2024-03-17T07:45:36;98620.69;;;8.47;80.81
9187;BME280;7273;48.902;9.410;2024-03-17T07:48:02;98623.53;;;8.57;81.05
9187;BME280;7273;48.902;9.410;2024-03-17T07:50:27;98625.34;;;8.73;81.09
9187;BME280;7273;48.902;9.410;2024-03-17T07:52:52;98624.91;;;8.81;80.74
9187;BME280;7273;48.902;9.410;2024-03-17T07:55:18;98619.41;;;8.92;80.38
9187;BME280;7273;48.902;9.410;2024-03-17T07:57:43;98618.41;;;8.98;80.58
9187;BME280;7273;48.902;9.410;2024-03-17T08:00:09;98623.16;;;9.13;80.12
9187;BME280;7273;48.902;9.410;2024-03-17T08:02:44;98621.09;;;9.25;80.32
9187;BME280;7273;48.902;9.410;2024-03-17T08:05:10;98625.81;;;9.34;80.06
9187;BME280;7273;48.902;9.410;2024-03-17T08:07:35;98621.00;;;9.41;79.80
9187;BME280;7273;48.902;9.410;2024-03-17T08:10:01;98618.78;;;9.60;80.08
9187;BME280;7273;48.902;9.410;2024-03-17T08:12:29;98621.91;;;9.79;79.37
9187;BME280;7273;48.902;9.410;2024-03-17T08:14:54;98619.28;;;9.89;79.16
9187;BME280;7273;48.902;9.410;2024-03-17T08:17:19;98619.88;;;9.96;79.16
9187;BME280;7273;48.902;9.410;2024-03-17T08:19:45;98612.63;;;10.01;78.91
9187;BME280;7273;48.902;9.410;2024-03-17T08:22:10;98608.13;;;10.12;79.10
9187;BME280;7273;48.902;9.410;2024-03-17T08:24:36;98606.56;;;10.16;79.10
9187;BME280;7273;48.902;9.410;2024-03-17T08:27:01;98608.50;;;10.25;79.06
9187;BME280;7273;48.902;9.410;2024-03-17T08:29:26;98609.09;;;10.32;79.33
9187;BME280;7273;48.902;9.410;2024-03-17T08:31:52;98598.03;;;10.39;79.07
9187;BME280;7273;48.902;9.410;2024-03-17T08:34:18;98599.75;;;10.55;79.05
9187;BME280;7273;48.902;9.410;2024-03-17T08:36:43;98608.41;;;10.57;78.89
9187;BME280;7273;48.902;9.410;2024-03-17T08:39:09;98601.09;;;10.57;78.96
9187;BME280;7273;48.902;9.410;2024-03-17T08:41:36;98605.75;;;10.67;78.98
9187;BME280;7273;48.902;9.410;2024-03-17T08:44:02;98618.78;;;10.75;78.96
9187;BME280;7273;48.902;9.410;2024-03-17T08:46:27;98621.25;;;10.81;78.89
9187;BME280;7273;48.902;9.410;2024-03-17T08:48:53;98614.47;;;10.84;78.92
9187;BME280;7273;48.902;9.410;2024-03-17T08:51:18;98601.00;;;10.94;78.78
9187;BME280;7273;48.902;9.410;2024-03-17T08:53:44;98605.59;;;10.99;78.79
9187;BME280;7273;48.902;9.410;2024-03-17T08:56:10;98609.69;;;11.01;78.92
9187;BME280;7273;48.902;9.410;2024-03-17T08:58:35;98608.06;;;11.05;79.12
9187;BME280;7273;48.902;9.410;2024-03-17T09:01:07;98607.78;;;11.07;78.85
9187;BME280;7273;48.902;9.410;2024-03-17T09:03:34;98617.03;;;11.11;78.84
9187;BME280;7273;48.902;9.410;2024-03-17T09:06:00;98607.00;;;11.11;79.01
9187;BME280;7273;48.902;9.410;2024-03-17T09:08:25;98601.34;;;11.13;79.17
9187;BME280;7273;48.902;9.410;2024-03-17T09:10:53;98607.56;;;11.18;79.08
9187;BME280;7273;48.902;9.410;2024-03-17T09:13:21;98602.69;;;11.20;78.90
9187;BME280;7273;48.902;9.410;2024-03-17T09:15:59;98603.25;;;11.27;79.00
9187;BME280;7273;48.902;9.410;2024-03-17T09:18:28;98599.47;;;11.33;79.12
9187;BME280;7273;48.902;9.410;2024-03-17T09:21:01;98596.22;;;11.36;79.17
9187;BME280;7273;48.902;9.410;2024-03-17T09:23:27;98589.50;;;11.44;79.03
9187;BME280;7273;48.902;9.410;2024-03-17T09:26:08;98587.84;;;11.53;79.07
9187;BME280;7273;48.902;9.410;2024-03-17T09:28:34;98582.44;;;11.58;79.05
9187;BME280;7273;48.902;9.410;2024-03-17T09:30:59;98578.41;;;11.65;78.95
9187;BME280;7273;48.902;9.410;2024-03-17T09:33:27;98580.31;;;11.75;79.13
9187;BME280;7273;48.902;9.410;2024-03-17T09:36:03;98584.94;;;11.89;78.76
9187;BME280;7273;48.902;9.410;2024-03-17T09:38:31;98577.06;;;11.93;78.79
9187;BME280;7273;48.902;9.410;2024-03-17T09:40:57;98580.28;;;12.05;78.84
9187;BME280;7273;48.902;9.410;2024-03-17T09:43:24;98573.78;;;12.16;78.77
9187;BME280;7273;48.902;9.410;2024-03-17T09:45:50;98567.25;;;12.27;78.66
9187;BME280;7273;48.902;9.410;2024-03-17T09:48:20;98568.88;;;12.28;78.24
9187;BME280;7273;48.902;9.410;2024-03-17T09:50:54;98578.88;;;12.38;78.20
9187;BME280;7273;48.902;9.410;2024-03-17T09:53:25;98582.41;;;12.43;78.15
9187;BME280;7273;48.902;9.410;2024-03-17T09:55:52;98584.00;;;12.44;78.16
9187;BME280;7273;48.902;9.410;2024-03-17T09:58:18;98575.88;;;12.44;77.87
9187;BME280;7273;48.902;9.410;2024-03-17T10:00:45;98571.78;;;12.52;78.12
9187;BME280;7273;48.902;9.410;2024-03-17T10:03:11;98572.84;;;12.56;78.10
9187;BME280;7273;48.902;9.410;2024-03-17T10:05:36;98577.72;;;12.59;77.91
9187;BME280;7273;48.902;9.410;2024-03-17T10:08:02;98583.41;;;12.62;78.16
9187;BME280;7273;48.902;9.410;2024-03-17T10:10:27;98582.84;;;12.65;77.85
9187;BME280;7273;48.902;9.410;2024-03-17T10:12:53;98588.56;;;12.64;77.67
9187;BME280;7273;48.902;9.410;2024-03-17T10:15:19;98586.63;;;12.74;77.75
9187;BME280;7273;48.902;9.410;2024-03-17T10:17:45;98591.25;;;12.74;77.82
9187;BME280;7273;48.902;9.410;2024-03-17T10:20:21;98581.16;;;12.84;76.85
9187;BME280;7273;48.902;9.410;2024-03-17T10:23:05;98574.06;;;12.88;76.99
9187;BME280;7273;48.902;9.410;2024-03-17T10:25:33;98568.63;;;12.93;76.91
9187;BME280;7273;48.902;9.410;2024-03-17T10:27:59;98571.03;;;13.00;76.79
9187;BME280;7273;48.902;9.410;2024-03-17T10:30:26;98564.53;;;13.06;76.90
9187;BME280;7273;48.902;9.410;2024-03-17T10:32:57;98575.94;;;13.03;76.85
9187;BME280;7273;48.902;9.410;2024-03-17T10:35:31;98563.97;;;13.09;76.64
9187;BME280;7273;48.902;9.410;2024-03-17T10:37:58;98566.13;;;13.12;76.49
9187;BME280;7273;48.902;9.410;2024-03-17T10:40:25;98568.59;;;13.08;76.25
9187;BME280;7273;48.902;9.410;2024-03-17T10:42:51;98571.53;;;13.17;75.99
9187;BME280;7273;48.902;9.410;2024-03-17T10:45:17;98574.53;;;13.15;76.27
9187;BME280;7273;48.902;9.410;2024-03-17T10:47:52;98566.88;;;13.22;76.08
9187;BME280;7273;48.902;9.410;2024-03-17T10:50:20;98579.09;;;13.20;76.17
9187;BME280;7273;48.902;9.410;2024-03-17T10:52:48;98570.41;;;13.23;76.33
9187;BME280;7273;48.902;9.410;2024-03-17T10:55:21;98573.69;;;13.20;75.86
9187;BME280;7273;48.902;9.410;2024-03-17T10:57:49;98571.50;;;13.22;76.21
9187;BME280;7273;48.902;9.410;2024-03-17T11:00:16;98571.56;;;13.12;76.05
9187;BME280;7273;48.902;9.410;2024-03-17T11:02:48;98573.41;;;13.21;76.19
9187;BME280;7273;48.902;9.410;2024-03-17T11:05:17;98574.41;;;13.35;75.81
9187;BME280;7273;48.902;9.410;2024-03-17T11:07:44;98577.88;;;13.41;76.09
9187;BME280;7273;48.902;9.410;2024-03-17T11:10:28;98566.66;;;13.52;75.66
9187;BME280;7273;48.902;9.410;2024-03-17T11:12:55;98572.81;;;13.68;75.44
9187;BME280;7273;48.902;9.410;2024-03-17T11:17:53;98573.84;;;14.06;74.94
9187;BME280;7273;48.902;9.410;2024-03-17T11:20:21;98564.78;;;14.15;75.00
9187;BME280;7273;48.902;9.410;2024-03-17T11:23:06;98571.03;;;14.44;74.95
9187;BME280;7273;48.902;9.410;2024-03-17T11:28:01;98554.16;;;14.90;75.34
9187;BME280;7273;48.902;9.410;2024-03-17T11:39:04;98550.56;;;15.68;75.86
9187;BME280;7273;48.902;9.410;2024-03-17T11:41:42;98549.09;;;15.76;69.40
9187;BME280;7273;48.902;9.410;2024-03-17T11:46:58;98545.00;;;15.92;77.04
9187;BME280;7273;48.902;9.410;2024-03-17T11:52:15;98533.78;;;15.93;76.85
9187;BME280;7273;48.902;9.410;2024-03-17T11:54:45;98529.19;;;15.75;76.17
9187;BME280;7273;48.902;9.410;2024-03-17T11:57:13;98520.03;;;15.85;77.08
9187;BME280;7273;48.902;9.410;2024-03-17T11:59:40;98524.56;;;15.89;76.89
9187;BME280;7273;48.902;9.410;2024-03-17T12:02:26;98518.63;;;15.87;76.38
9187;BME280;7273;48.902;9.410;2024-03-17T12:04:53;98514.09;;;15.96;76.57
9187;BME280;7273;48.902;9.410;2024-03-17T12:07:21;98504.38;;;16.04;76.39
9187;BME280;7273;48.902;9.410;2024-03-17T12:09:49;98508.38;;;16.11;76.29
9187;BME280;7273;48.902;9.410;2024-03-17T12:12:22;98503.13;;;16.15;75.72
9187;BME280;7273;48.902;9.410;2024-03-17T12:14:49;98501.91;;;16.21;75.49
9187;BME280;7273;48.902;9.410;2024-03-17T12:17:20;98498.44;;;16.15;75.01
9187;BME280;7273;48.902;9.410;2024-03-17T12:19:45;98500.38;;;16.15;74.53
9187;BME280;7273;48.902;9.410;2024-03-17T12:22:23;98494.84;;;16.20;73.93
9187;BME280;7273;48.902;9.410;2024-03-17T12:24:51;98490.47;;;16.19;73.73
9187;BME280;7273;48.902;9.410;2024-03-17T12:27:21;98497.59;;;15.74;71.20
9187;BME280;7273;48.902;9.410;2024-03-17T12:29:48;98493.16;;;15.46;71.18
9187;BME280;7273;48.902;9.410;2024-03-17T12:32:25;98496.56;;;15.52;71.69
9187;BME280;7273;48.902;9.410;2024-03-17T12:34:55;98490.16;;;15.61;72.70
9187;BME280;7273;48.902;9.410;2024-03-17T12:37:25;98492.28;;;15.64;73.16
9187;BME280;7273;48.902;9.410;2024-03-17T12:39:59;98491.44;;;15.50;71.52
9187;BME280;7273;48.902;9.410;2024-03-17T12:42:28;98489.28;;;15.47;72.24
9187;BME280;7273;48.902;9.410;2024-03-17T12:45:00;98484.66;;;15.48;72.11
9187;BME280;7273;48.902;9.410;2024-03-17T12:47:31;98484.56;;;15.34;72.07
9187;BME280;7273;48.902;9.410;2024-03-17T12:49:58;98480.16;;;15.20;70.22
9187;BME280;7273;48.902;9.410;2024-03-17T12:52:31;98484.53;;;15.02;70.97
9187;BME280;7273;48.902;9.410;2024-03-17T12:55:04;98475.09;;;15.13;71.09
9187;BME280;7273;48.902;9.410;2024-03-17T12:57:50;98479.72;;;15.13;71.19
9187;BME280;7273;48.902;9.410;2024-03-17T13:00:34;98465.69;;;15.06;71.53
9187;BME280;7273;48.902;9.410;2024-03-17T13:03:07;98466.78;;;15.05;71.21
9187;BME280;7273;48.902;9.410;2024-03-17T13:05:33;98461.69;;;14.98;71.19
9187;BME280;7273;48.902;9.410;2024-03-17T13:07:59;98458.81;;;14.90;71.52
9187;BME280;7273;48.902;9.410;2024-03-17T13:10:26;98460.47;;;14.91;71.23
9187;BME280;7273;48.902;9.410;2024-03-17T13:13:03;98464.94;;;14.81;71.18
9187;BME280;7273;48.902;9.410;2024-03-17T13:15:30;98456.81;;;14.76;71.06
9187;BME280;7273;48.902;9.410;2024-03-17T13:17:59;98461.31;;;14.67;71.00
9187;BME280;7273;48.902;9.410;2024-03-17T13:20:25;98456.00;;;14.57;70.78
9187;BME280;7273;48.902;9.410;2024-03-17T13:22:51;98462.56;;;14.56;70.63
9187;BME280;7273;48.902;9.410;2024-03-17T13:25:19;98457.69;;;14.53;70.79
9187;BME280;7273;48.902;9.410;2024-03-17T13:27:47;98455.06;;;14.48;70.80
9187;BME280;7273;48.902;9.410;2024-03-17T13:30:13;98459.44;;;14.44;70.44
9187;BME280;7273;48.902;9.410;2024-03-17T13:32:39;98456.72;;;14.44;70.23
9187;BME280;7273;48.902;9.410;2024-03-17T13:35:06;98457.91;;;14.38;70.27
9187;BME280;7273;48.902;9.410;2024-03-17T13:37:34;98455.53;;;14.32;70.46
9187;BME280;7273;48.902;9.410;2024-03-17T13:40:01;98446.06;;;14.24;70.56
9187;BME280;7273;48.902;9.410;2024-03-17T13:42:30;98438.44;;;14.26;70.27
9187;BME280;7273;48.902;9.410;2024-03-17T13:44:55;98439.28;;;14.22;70.29
9187;BME280;7273;48.902;9.410;2024-03-17T13:47:21;98442.53;;;14.24;70.28
9187;BME280;7273;48.902;9.410;2024-03-17T13:49:47;98442.81;;;14.22;70.33
9187;BME280;7273;48.902;9.410;2024-03-17T13:52:12;98446.34;;;14.23;69.87
9187;BME280;7273;48.902;9.410;2024-03-17T13:54:38;98443.91;;;14.21;69.80